Time;durP1;ratioP1;P1;durP2;ratioP2;P2;SDS_P1;SDS_P2;PMS_P1;PMS_P2;Temp;Humidity;BMP_temperature;BMP_pressure;BME280_temperature;BME280_humidity;BME280_pressure;Samples;Min_cycle;Max_cycle;Signal;HPM_P1;HPM_P2
2023/04/25 00:01:38;;;;;;;18.10;3.40;;;;;;;3.83;100.00;101270.31;5035389;28;20041;-73
2023/04/25 00:04:05;;;;;;;19.00;3.47;;;;;;;3.79;100.00;101261.75;5035540;28;20025;-73
2023/04/25 00:06:32;;;;;;;15.52;3.10;;;;;;;3.75;100.00;101260.22;5034014;28;20037;-73
2023/04/25 00:08:57;;;;;;;16.63;2.90;;;;;;;3.75;100.00;101270.75;5033928;28;20052;-72
2023/04/25 00:11:23;;;;;;;11.50;2.65;;;;;;;3.77;100.00;101268.88;5034098;28;20375;-72
2023/04/25 00:13:50;;;;;;;19.27;3.13;;;;;;;3.76;100.00;101274.22;5035264;28;20061;-72
2023/04/25 00:16:16;;;;;;;15.63;3.35;;;;;;;3.71;100.00;101271.84;5035085;28;20593;-73
2023/04/25 00:18:42;;;;;;;13.43;3.28;;;;;;;3.62;100.00;101273.19;5034132;28;20124;-72
2023/04/25 00:21:07;;;;;;;13.50;3.20;;;;;;;3.60;100.00;101274.22;5035207;28;20038;-73
2023/04/25 00:23:35;;;;;;;16.50;3.20;;;;;;;3.58;100.00;101282.19;5035068;28;20081;-73
2023/04/25 00:26:01;;;;;;;15.48;2.85;;;;;;;3.62;100.00;101272.34;5034909;28;20042;-72
2023/04/25 00:28:26;;;;;;;11.23;3.70;;;;;;;3.63;100.00;101272.28;5033524;28;20175;-72
2023/04/25 00:30:51;;;;;;;18.60;3.90;;;;;;;3.67;100.00;101272.94;5034848;28;20060;-72
2023/04/25 00:33:17;;;;;;;15.65;2.78;;;;;;;3.69;100.00;101273.72;5034756;28;20040;-72
2023/04/25 00:35:42;;;;;;;12.30;2.67;;;;;;;3.70;100.00;101273.66;5034585;28;20036;-72
2023/04/25 00:38:07;;;;;;;11.50;3.03;;;;;;;3.72;100.00;101273.56;5034892;28;20029;-72
2023/04/25 00:40:33;;;;;;;12.93;2.63;;;;;;;3.75;100.00;101272.53;5035192;28;20116;-73
2023/04/25 00:42:58;;;;;;;19.05;3.40;;;;;;;3.77;100.00;101274.13;5033342;28;20109;-73
2023/04/25 00:45:29;;;;;;;10.00;2.83;;;;;;;3.77;100.00;101276.78;5033274;28;20422;-73
2023/04/25 00:47:54;;;;;;;16.10;3.10;;;;;;;3.76;100.00;101277.69;5033152;28;20025;-72
2023/04/25 00:50:20;;;;;;;15.45;2.85;;;;;;;3.81;100.00;101277.47;5034286;28;20091;-73
2023/04/25 00:52:45;;;;;;;7.18;2.85;;;;;;;3.80;100.00;101283.66;5034460;28;20382;-72
2023/04/25 00:55:12;;;;;;;14.48;2.70;;;;;;;3.79;100.00;101287.22;5034754;28;20029;-73
2023/04/25 00:57:38;;;;;;;10.90;2.83;;;;;;;3.69;100.00;101293.00;5035347;28;20053;-72
2023/04/25 01:00:09;;;;;;;19.60;3.05;;;;;;;3.64;100.00;101289.78;5033163;28;20036;-72
2023/04/25 01:02:35;;;;;;;13.30;3.47;;;;;;;3.60;100.00;101296.13;5033878;28;20041;-73
2023/04/25 01:05:01;;;;;;;12.15;2.45;;;;;;;3.56;100.00;101291.13;5034482;28;20030;-75
2023/04/25 01:07:27;;;;;;;10.05;2.42;;;;;;;3.55;100.00;101303.41;5034115;28;20364;-73
2023/04/25 01:09:52;;;;;;;13.73;2.70;;;;;;;3.52;100.00;101299.19;5034143;28;20500;-72
2023/04/25 01:12:17;;;;;;;15.77;3.22;;;;;;;3.50;100.00;101284.41;5034057;28;20037;-72
2023/04/25 01:14:43;;;;;;;13.43;3.38;;;;;;;3.48;100.00;101296.78;5034244;28;20482;-72
2023/04/25 01:17:10;;;;;;;11.05;2.45;;;;;;;3.50;100.00;101289.66;5034649;28;20452;-73
2023/04/25 01:19:35;;;;;;;15.25;3.05;;;;;;;3.46;100.00;101296.88;5033744;28;20033;-72
2023/04/25 01:22:01;;;;;;;18.15;2.85;;;;;;;3.45;100.00;101296.94;5033155;28;20580;-72
2023/04/25 01:24:26;;;;;;;10.88;2.60;;;;;;;3.44;100.00;101301.34;5034101;28;20053;-72
2023/04/25 01:26:53;;;;;;;12.30;2.55;;;;;;;3.46;100.00;101304.78;5033558;28;20069;-73
2023/04/25 01:29:19;;;;;;;24.65;2.80;;;;;;;3.55;100.00;101308.66;5033628;28;20460;-72
2023/04/25 01:31:45;;;;;;;12.68;2.45;;;;;;;3.61;100.00;101308.34;5034246;28;20037;-72
2023/04/25 01:34:12;;;;;;;10.27;2.35;;;;;;;3.70;100.00;101312.25;5033129;28;20033;-73
2023/04/25 01:36:38;;;;;;;15.85;2.33;;;;;;;3.79;100.00;101303.00;5032110;28;20033;-73
2023/04/25 01:39:03;;;;;;;13.77;2.75;;;;;;;3.86;100.00;101304.38;5033313;28;20037;-73
2023/04/25 01:41:29;;;;;;;12.23;3.05;;;;;;;3.92;100.00;101298.78;5033287;28;20037;-73
2023/04/25 01:43:55;;;;;;;14.23;3.05;;;;;;;3.99;100.00;101299.28;5034256;28;20036;-73
2023/04/25 01:46:21;;;;;;;11.20;2.70;;;;;;;4.06;100.00;101306.78;5032268;28;20040;-73
2023/04/25 01:48:46;;;;;;;18.13;3.75;;;;;;;4.17;100.00;101303.53;5032498;28;20120;-73
2023/04/25 01:51:12;;;;;;;9.43;2.55;;;;;;;4.25;100.00;101313.63;5033308;28;20025;-73
2023/04/25 01:53:38;;;;;;;5.75;1.75;;;;;;;4.32;100.00;101311.50;5033827;28;20033;-73
2023/04/25 01:56:04;;;;;;;13.93;2.67;;;;;;;4.37;100.00;101307.69;5032985;28;20061;-72
2023/04/25 01:58:29;;;;;;;8.43;2.50;;;;;;;4.43;100.00;101313.53;5033197;28;20037;-73
2023/04/25 02:00:55;;;;;;;10.68;2.03;;;;;;;4.44;100.00;101315.22;5033212;28;20528;-73
2023/04/25 02:03:20;;;;;;;17.42;2.78;;;;;;;4.46;100.00;101315.97;5033109;28;20025;-73
2023/04/25 02:05:45;;;;;;;16.90;2.72;;;;;;;4.44;100.00;101316.06;5032246;28;20033;-73
2023/04/25 02:08:11;;;;;;;13.95;3.50;;;;;;;4.43;100.00;101311.72;5033321;28;20325;-73
2023/04/25 02:10:36;;;;;;;11.05;2.10;;;;;;;4.43;100.00;101316.16;5033138;28;20328;-73
2023/04/25 02:13:02;;;;;;;20.33;2.88;;;;;;;4.38;100.00;101313.78;5033141;28;20041;-72
2023/04/25 02:15:28;;;;;;;16.80;2.90;;;;;;;4.37;100.00;101320.00;5032989;28;20372;-73
2023/04/25 02:17:53;;;;;;;11.80;2.10;;;;;;;4.36;100.00;101311.25;5032755;28;20041;-72
2023/04/25 02:20:21;;;;;;;17.88;2.72;;;;;;;4.36;100.00;101315.63;5032827;28;20127;-72
2023/04/25 02:22:47;;;;;;;14.77;2.67;;;;;;;4.38;100.00;101321.69;5032999;28;20056;-72
2023/04/25 02:25:12;;;;;;;5.35;1.95;;;;;;;4.39;100.00;101323.41;5032884;28;20412;-72
2023/04/25 02:27:38;;;;;;;18.92;3.10;;;;;;;4.43;100.00;101331.97;5031956;28;20029;-72
2023/04/25 02:30:05;;;;;;;6.25;2.00;;;;;;;4.45;100.00;101315.16;5032672;28;20446;-72
2023/04/25 02:32:30;;;;;;;12.90;1.80;;;;;;;4.46;100.00;101314.19;5031601;28;20510;-72
2023/04/25 02:34:58;;;;;;;13.20;2.00;;;;;;;4.51;100.00;101321.81;5032489;28;20034;-72
2023/04/25 02:37:24;;;;;;;12.45;2.30;;;;;;;4.54;100.00;101324.31;5033273;28;20037;-73
2023/04/25 02:39:49;;;;;;;8.07;1.65;;;;;;;4.57;100.00;101322.34;5033030;28;20034;-73
2023/04/25 02:42:15;;;;;;;13.20;2.25;;;;;;;4.58;100.00;101325.81;5032644;28;20116;-72
2023/04/25 02:44:40;;;;;;;12.52;2.42;;;;;;;4.55;100.00;101323.34;5032834;28;20375;-72
2023/04/25 02:47:05;;;;;;;11.02;2.40;;;;;;;4.53;100.00;101322.59;5036935;28;20531;-72
2023/04/25 02:49:31;;;;;;;8.27;1.90;;;;;;;4.49;100.00;101327.19;5036613;28;20041;-72
2023/04/25 02:51:56;;;;;;;7.35;2.42;;;;;;;4.44;100.00;101323.13;5036681;28;20107;-72
2023/04/25 02:54:21;;;;;;;9.75;2.28;;;;;;;4.42;100.00;101331.13;5036542;28;20061;-73
2023/04/25 02:56:47;;;;;;;5.57;2.17;;;;;;;4.41;100.00;101322.34;5036064;28;20062;-71
2023/04/25 02:59:12;;;;;;;10.15;2.03;;;;;;;4.42;100.00;101331.13;5036625;28;20068;-72
2023/04/25 03:01:37;;;;;;;7.75;2.03;;;;;;;4.45;100.00;101316.91;5036357;28;20038;-73
2023/04/25 03:04:03;;;;;;;16.80;2.40;;;;;;;4.51;100.00;101324.47;5036974;28;20030;-71
2023/04/25 03:06:28;;;;;;;8.80;1.98;;;;;;;4.54;100.00;101322.50;5035080;28;20518;-71
2023/04/25 03:08:54;;;;;;;14.70;2.38;;;;;;;4.57;100.00;101330.25;5036340;28;20034;-73
2023/04/25 03:11:20;;;;;;;5.65;1.80;;;;;;;4.59;100.00;101333.63;5036279;28;20475;-71
2023/04/25 03:13:45;;;;;;;18.30;2.72;;;;;;;4.58;100.00;101320.53;5036538;28;20379;-73
2023/04/25 03:16:11;;;;;;;16.33;2.20;;;;;;;4.59;100.00;101327.53;5036265;28;20112;-73
2023/04/25 03:18:36;;;;;;;19.50;3.08;;;;;;;4.58;100.00;101328.44;5035594;28;20466;-72
2023/04/25 03:21:02;;;;;;;14.57;2.33;;;;;;;4.57;100.00;101326.78;5036724;28;20033;-72
2023/04/25 03:23:27;;;;;;;7.45;1.80;;;;;;;4.57;100.00;101335.50;5034704;28;20034;-72
2023/04/25 03:25:52;;;;;;;12.32;1.85;;;;;;;4.61;100.00;101332.69;5035830;28;20060;-72
2023/04/25 03:28:18;;;;;;;8.07;2.13;;;;;;;4.62;100.00;101329.97;5035991;28;20029;-71
2023/04/25 03:30:43;;;;;;;12.90;2.45;;;;;;;4.63;100.00;101336.09;5036010;28;20467;-72
2023/04/25 03:33:08;;;;;;;13.68;2.22;;;;;;;4.64;100.00;101336.00;5036088;28;20029;-72
2023/04/25 03:35:34;;;;;;;20.10;2.90;;;;;;;4.64;100.00;101337.78;5035617;28;20120;-72
2023/04/25 03:37:59;;;;;;;6.60;1.58;;;;;;;4.61;100.00;101333.53;5035913;28;20153;-72
2023/04/25 03:40:24;;;;;;;10.02;2.33;;;;;;;4.61;100.00;101336.19;5035733;28;20478;-72
2023/04/25 03:42:50;;;;;;;7.50;2.30;;;;;;;4.61;100.00;101344.09;5034227;28;20029;-72
2023/04/25 03:45:15;;;;;;;15.48;2.72;;;;;;;4.59;100.00;101341.53;5035540;28;20038;-72
2023/04/25 03:47:40;;;;;;;8.50;2.17;;;;;;;4.58;100.00;101344.25;5035481;28;20079;-72
2023/04/25 03:50:06;;;;;;;9.55;2.22;;;;;;;4.57;100.00;101337.31;5035778;28;20029;-73
2023/04/25 03:52:32;;;;;;;12.07;2.25;;;;;;;4.61;100.00;101343.25;5035333;28;20407;-72
2023/04/25 03:54:57;;;;;;;9.75;2.10;;;;;;;4.59;100.00;101338.91;5035846;28;20037;-72
2023/04/25 03:57:22;;;;;;;5.78;1.42;;;;;;;4.59;100.00;101348.59;5034856;28;20053;-72
2023/04/25 03:59:48;;;;;;;10.82;1.98;;;;;;;4.58;100.00;101346.91;5035509;28;20043;-72
2023/04/25 04:02:13;;;;;;;5.82;2.22;;;;;;;4.55;100.00;101355.84;5035417;28;20033;-72
2023/04/25 04:04:38;;;;;;;9.00;1.92;;;;;;;4.53;100.00;101355.06;5034845;28;20506;-72
2023/04/25 04:07:04;;;;;;;15.50;1.83;;;;;;;4.51;100.00;101356.94;5034840;28;20093;-72
2023/04/25 04:09:29;;;;;;;8.07;1.75;;;;;;;4.49;100.00;101352.69;5033654;28;20407;-73
2023/04/25 04:11:55;;;;;;;7.63;1.80;;;;;;;4.46;100.00;101358.97;5035003;28;20029;-72
2023/04/25 04:14:20;;;;;;;8.77;2.10;;;;;;;4.44;100.00;101352.13;5034893;28;20458;-71
2023/04/25 04:16:46;;;;;;;11.43;2.03;;;;;;;4.43;100.00;101353.88;5034752;28;20100;-74
2023/04/25 04:19:11;;;;;;;13.90;2.08;;;;;;;4.43;100.00;101363.59;5035192;28;20040;-72
2023/04/25 04:21:36;;;;;;;10.82;2.10;;;;;;;4.40;100.00;101367.25;5035463;28;20056;-72
2023/04/25 04:24:02;;;;;;;9.50;1.77;;;;;;;4.34;100.00;101365.78;5035027;28;20091;-72
2023/04/25 04:26:27;;;;;;;12.98;2.25;;;;;;;4.22;100.00;101371.75;5034609;28;20167;-72
2023/04/25 04:28:54;;;;;;;14.38;3.15;;;;;;;4.12;100.00;101379.31;5033498;28;20112;-72
2023/04/25 04:31:23;;;;;;;17.33;2.40;;;;;;;4.04;100.00;101378.88;5035399;28;20026;-72
2023/04/25 04:33:49;;;;;;;10.27;1.90;;;;;;;4.03;100.00;101379.81;5035742;28;20029;-73
2023/04/25 04:36:15;;;;;;;12.38;2.42;;;;;;;4.10;100.00;101380.34;5034344;28;20510;-72
2023/04/25 04:38:42;;;;;;;11.32;2.05;;;;;;;4.16;100.00;101380.84;5035238;28;20029;-73
2023/04/25 04:41:07;;;;;;;14.98;2.28;;;;;;;4.22;100.00;101383.16;5034803;28;20486;-72
2023/04/25 04:43:33;;;;;;;12.43;2.58;;;;;;;4.31;100.00;101389.69;5035214;28;20150;-73
2023/04/25 04:46:00;;;;;;;11.35;2.20;;;;;;;4.37;100.00;101386.72;5034657;28;20045;-72
2023/04/25 04:48:26;;;;;;;10.20;3.03;;;;;;;4.40;100.00;101390.94;5034609;28;20065;-76
2023/04/25 04:50:52;;;;;;;15.52;2.55;;;;;;;4.40;100.00;101390.94;5034499;28;20547;-72
2023/04/25 04:53:17;;;;;;;8.40;2.05;;;;;;;4.37;100.00;101402.53;5034307;28;20145;-72
2023/04/25 04:55:42;;;;;;;13.00;2.38;;;;;;;4.32;100.00;101414.25;5034459;28;20033;-72
2023/04/25 04:58:08;;;;;;;18.20;3.05;;;;;;;4.22;100.00;101408.63;5034065;28;20479;-72
2023/04/25 05:00:34;;;;;;;14.57;2.58;;;;;;;4.10;100.00;101406.66;5034188;28;20041;-72
2023/04/25 05:02:59;;;;;;;7.28;2.15;;;;;;;3.96;100.00;101413.53;5034047;28;20041;-71
2023/04/25 05:05:25;;;;;;;16.52;2.30;;;;;;;3.87;100.00;101425.41;5034394;28;20029;-72
2023/04/25 05:07:50;;;;;;;11.02;2.03;;;;;;;3.91;100.00;101425.22;5033392;28;20033;-72
2023/04/25 05:10:18;;;;;;;9.30;2.30;;;;;;;3.94;100.00;101422.44;5033769;28;20025;-72
2023/04/25 05:12:43;;;;;;;13.20;1.77;;;;;;;3.98;100.00;101434.50;5032762;28;20387;-72
2023/04/25 05:15:09;;;;;;;7.22;1.67;;;;;;;3.97;100.00;101436.31;5033778;28;20029;-72
2023/04/25 05:17:34;;;;;;;7.93;1.92;;;;;;;3.94;100.00;101440.88;5034150;28;20033;-72
2023/04/25 05:20:00;;;;;;;5.55;1.90;;;;;;;3.96;100.00;101444.28;5033795;28;20121;-72
2023/04/25 05:22:26;;;;;;;6.85;1.75;;;;;;;3.95;100.00;101446.06;5033787;28;20041;-72
2023/04/25 05:24:51;;;;;;;8.27;1.65;;;;;;;4.00;100.00;101453.69;5033817;28;20033;-72
2023/04/25 05:27:18;;;;;;;7.63;1.65;;;;;;;4.07;100.00;101449.81;5033773;28;20029;-72
2023/04/25 05:29:43;;;;;;;10.82;1.77;;;;;;;4.16;100.00;101457.22;5033965;28;20056;-72
2023/04/25 05:32:09;;;;;;;8.57;1.73;;;;;;;4.27;100.00;101463.69;5034298;28;20463;-73
2023/04/25 05:34:34;;;;;;;4.53;1.52;;;;;;;4.35;100.00;101467.63;5033574;28;20037;-72
2023/04/25 05:37:00;;;;;;;3.15;1.02;;;;;;;4.43;100.00;101471.63;5033534;28;20430;-73
2023/04/25 05:39:26;;;;;;;4.30;1.40;;;;;;;4.45;100.00;101481.16;5033639;28;20032;-73
2023/04/25 05:41:51;;;;;;;5.95;1.33;;;;;;;4.43;100.00;101482.16;5033750;28;20025;-73
2023/04/25 05:44:16;;;;;;;4.55;1.20;;;;;;;4.38;100.00;101492.97;5033814;28;20032;-73
2023/04/25 05:46:42;;;;;;;5.43;1.70;;;;;;;4.36;100.00;101502.72;5033696;28;20033;-74
2023/04/25 05:49:07;;;;;;;8.55;1.63;;;;;;;4.29;100.00;101502.22;5033456;28;20034;-73
2023/04/25 05:51:33;;;;;;;3.22;1.30;;;;;;;4.17;100.00;101492.34;5033397;28;20079;-73
2023/04/25 05:53:58;;;;;;;9.07;1.75;;;;;;;3.99;100.00;101496.78;5033804;28;20029;-73
2023/04/25 05:56:23;;;;;;;7.43;2.00;;;;;;;3.87;100.00;101506.19;5033270;28;20144;-73
2023/04/25 05:58:49;;;;;;;5.35;1.70;;;;;;;3.87;100.00;101498.28;5032312;28;20112;-73
2023/04/25 06:01:14;;;;;;;6.80;1.40;;;;;;;3.93;100.00;101499.75;5033425;28;20045;-73
2023/04/25 06:03:42;;;;;;;7.13;1.40;;;;;;;3.98;100.00;101506.44;5033284;28;20030;-73
2023/04/25 06:06:08;;;;;;;5.13;1.75;;;;;;;4.04;100.00;101502.66;5033494;28;20117;-73
2023/04/25 06:08:33;;;;;;;4.85;1.98;;;;;;;4.10;100.00;101504.97;5033171;28;20125;-72
2023/04/25 06:10:59;;;;;;;6.20;1.90;;;;;;;4.14;100.00;101514.41;5033093;28;20116;-73
2023/04/25 06:13:24;;;;;;;8.32;1.98;;;;;;;4.16;100.00;101514.31;5031788;28;20034;-73
2023/04/25 06:15:50;;;;;;;4.20;1.30;;;;;;;4.22;100.00;101514.00;5033410;28;20034;-73
2023/04/25 06:18:16;;;;;;;8.68;1.67;;;;;;;4.23;100.00;101513.91;5031930;28;20032;-73
2023/04/25 06:20:42;;;;;;;7.22;1.63;;;;;;;4.24;100.00;101513.00;5032911;28;20041;-73
2023/04/25 06:23:07;;;;;;;8.02;1.63;;;;;;;4.26;100.00;101519.97;5032932;28;20034;-73
2023/04/25 06:25:32;;;;;;;5.60;1.40;;;;;;;4.24;100.00;101522.69;5031705;28;20045;-72
2023/04/25 06:27:58;;;;;;;8.65;1.70;;;;;;;4.27;100.00;101534.81;5032858;28;20032;-73
2023/04/25 06:30:25;;;;;;;6.53;2.35;;;;;;;4.29;100.00;101531.19;5032473;28;20132;-72
2023/04/25 06:32:51;;;;;;;7.45;1.48;;;;;;;4.30;100.00;101537.28;5032804;28;20095;-72
2023/04/25 06:35:16;;;;;;;5.32;1.50;;;;;;;4.33;100.00;101540.63;5032817;28;20057;-72
2023/04/25 06:37:42;;;;;;;7.28;1.73;;;;;;;4.35;100.00;101540.56;5032678;28;20396;-73
2023/04/25 06:40:08;;;;;;;7.95;2.15;;;;;;;4.38;100.00;101533.31;5032491;28;20391;-73
2023/04/25 06:42:33;;;;;;;11.35;2.38;;;;;;;4.43;100.00;101532.22;5032745;28;20029;-72
2023/04/25 06:44:58;;;;;;;7.35;1.70;;;;;;;4.52;100.00;101542.28;5032636;28;20081;-73
2023/04/25 06:47:24;;;;;;;4.53;2.05;;;;;;;4.68;100.00;101539.66;5032683;28;20038;-72
2023/04/25 06:49:49;;;;;;;3.45;1.73;;;;;;;4.87;100.00;101543.00;5032387;28;20045;-72
2023/04/25 06:52:15;;;;;;;7.85;2.03;;;;;;;5.09;100.00;101549.69;5032687;28;20038;-73
2023/04/25 06:54:40;;;;;;;11.88;1.90;;;;;;;5.38;100.00;101542.78;5033364;28;20547;-77
2023/04/25 06:57:06;;;;;;;8.38;1.75;;;;;;;5.71;100.00;101540.91;5032807;28;20054;-73
2023/04/25 06:59:32;;;;;;;8.48;1.40;;;;;;;6.07;100.00;101545.81;5032633;28;20121;-73
2023/04/25 07:01:58;;;;;;;12.63;1.60;;;;;;;6.54;100.00;101543.84;5032380;28;20037;-73
2023/04/25 07:04:23;;;;;;;8.82;1.63;;;;;;;6.98;100.00;101550.75;5032466;28;20026;-74
2023/04/25 07:06:49;;;;;;;10.10;1.50;;;;;;;7.14;100.00;101552.44;5032802;28;20037;-74
2023/04/25 07:09:14;;;;;;;11.95;1.73;;;;;;;6.99;100.00;101559.56;5032612;28;20036;-72
2023/04/25 07:11:40;;;;;;;6.00;1.30;;;;;;;6.68;100.00;101543.81;5032534;28;20467;-74
2023/04/25 07:14:05;;;;;;;7.47;1.40;;;;;;;6.48;100.00;101545.09;5031357;28;20124;-73
2023/04/25 07:16:31;;;;;;;7.32;1.67;;;;;;;6.47;100.00;101556.59;5032195;28;20120;-73
2023/04/25 07:18:56;;;;;;;10.18;1.55;;;;;;;6.51;100.00;101551.97;5014447;28;20467;-73
2023/04/25 07:21:21;;;;;;;7.63;1.23;;;;;;;6.59;100.00;101559.44;5032417;28;20037;-73
2023/04/25 07:23:47;;;;;;;10.45;1.65;;;;;;;6.74;100.00;101554.97;5032405;28;20457;-73
2023/04/25 07:26:13;;;;;;;8.77;1.42;;;;;;;6.97;100.00;101561.44;5031883;28;20037;-73
2023/04/25 07:28:38;;;;;;;5.55;1.38;;;;;;;7.24;100.00;101570.25;5032366;28;20033;-74
2023/04/25 07:31:05;;;;;;;7.90;1.42;;;;;;;7.46;100.00;101562.72;5032501;28;20091;-73
2023/04/25 07:33:30;;;;;;;11.20;1.55;;;;;;;7.68;100.00;101570.94;5036277;28;20121;-74
2023/04/25 07:35:55;;;;;;;8.55;2.05;;;;;;;7.81;100.00;101573.63;5034597;28;20125;-74
2023/04/25 07:38:21;;;;;;;9.23;1.67;;;;;;;7.83;100.00;101573.50;5018079;28;20036;-74
2023/04/25 07:40:49;;;;;;;7.18;1.50;;;;;;;7.97;100.00;101577.88;5035635;28;20032;-74
2023/04/25 07:43:16;;;;;;;5.10;1.23;;;;;;;7.74;100.00;101578.47;5035952;28;20148;-73
2023/04/25 07:45:45;;;;;;;5.90;1.45;;;;;;;7.62;100.00;101584.56;5035943;28;20045;-73
2023/04/25 07:48:10;;;;;;;9.20;1.60;;;;;;;7.48;100.00;101582.84;5034445;28;20044;-73
2023/04/25 07:50:36;;;;;;;12.07;1.55;;;;;;;7.32;100.00;101582.16;5035538;28;20033;-73
2023/04/25 07:53:01;;;;;;;16.80;1.83;;;;;;;7.44;100.00;101594.59;5035656;28;20034;-74
2023/04/25 07:55:27;;;;;;;10.05;1.83;;;;;;;7.46;100.00;101590.03;5035334;28;20026;-73
2023/04/25 07:57:53;;;;;;;8.05;1.60;;;;;;;7.66;100.00;101593.16;5036008;28;20573;-73
2023/04/25 08:00:19;;;;;;;9.15;2.00;;;;;;;8.00;100.00;101599.72;5035231;28;20073;-73
2023/04/25 08:02:44;;;;;;;7.65;1.20;;;;;;;8.39;99.31;101605.03;5034631;28;20125;-73
2023/04/25 08:05:13;;;;;;;7.78;2.05;;;;;;;8.67;100.00;101600.50;5035279;28;20037;-73
2023/04/25 08:07:40;;;;;;;12.10;2.05;;;;;;;8.98;100.00;101607.97;5035333;28;20499;-73
2023/04/25 08:10:06;;;;;;;5.43;1.55;;;;;;;9.10;95.14;101616.03;5034080;28;20045;-73
2023/04/25 08:12:32;;;;;;;10.07;2.05;;;;;;;9.12;90.77;101617.63;5035383;28;20120;-73
2023/04/25 08:14:57;;;;;;;9.57;1.98;;;;;;;9.48;94.20;101623.84;5033761;28;20506;-74
2023/04/25 08:17:22;;;;;;;4.70;1.30;;;;;;;9.69;85.34;101629.38;5035640;28;20364;-74
2023/04/25 08:19:48;;;;;;;7.05;1.30;;;;;;;9.92;82.89;101626.81;5017506;28;20037;-72
2023/04/25 08:22:14;;;;;;;6.18;1.50;;;;;;;9.69;86.74;101634.72;5034824;28;20040;-73
2023/04/25 08:24:40;;;;;;;6.72;1.30;;;;;;;9.25;98.16;101643.28;5035395;28;20037;-72
2023/04/25 08:27:07;;;;;;;8.30;1.60;;;;;;;9.37;100.00;101655.66;5034394;28;20037;-72
2023/04/25 08:29:32;;;;;;;9.88;1.70;;;;;;;9.28;99.62;101657.16;5035094;28;20092;-72
2023/04/25 08:31:58;;;;;;;11.52;1.70;;;;;;;9.23;98.93;101656.66;5034694;28;20025;-72
2023/04/25 08:34:23;;;;;;;7.60;1.65;;;;;;;9.35;95.45;101658.44;5034458;28;20040;-72
2023/04/25 08:36:48;;;;;;;10.73;2.63;;;;;;;9.05;96.72;101661.47;5034889;28;20037;-72
2023/04/25 08:39:14;;;;;;;10.65;2.20;;;;;;;9.44;97.32;101662.22;5034610;28;20144;-72
2023/04/25 08:41:41;;;;;;;23.30;3.13;;;;;;;10.16;99.47;101665.81;5034911;28;20029;-73
2023/04/25 08:44:10;;;;;;;29.02;4.95;;;;;;;10.70;89.59;101670.56;5033174;28;20087;-72
2023/04/25 08:46:38;;;;;;;5.30;1.27;;;;;;;10.86;75.30;101667.53;5034764;28;20021;-72
2023/04/25 08:49:03;;;;;;;6.82;1.20;;;;;;;11.14;64.50;101667.16;5034084;28;20455;-71
2023/04/25 08:51:32;;;;;;;3.42;1.17;;;;;;;10.56;70.17;101686.75;5033627;28;20033;-72
2023/04/25 08:54:09;;;;;;;4.60;1.20;;;;;;;10.10;69.05;101691.06;5034339;28;20057;-73
2023/04/25 08:56:35;;;;;;;4.78;1.88;;;;;;;10.04;75.82;101689.69;5034516;28;20049;-72
2023/04/25 08:59:02;;;;;;;7.97;1.42;;;;;;;10.44;70.96;101688.53;5034290;28;20116;-73
2023/04/25 09:01:28;;;;;;;4.55;1.33;;;;;;;10.88;69.89;101696.69;5034134;28;20044;-73
2023/04/25 09:03:53;;;;;;;3.65;1.35;;;;;;;11.28;67.75;101701.53;5033899;28;20395;-72
2023/04/25 09:06:19;;;;;;;4.53;1.38;;;;;;;12.08;62.08;101702.22;5034194;28;20069;-71
2023/04/25 09:08:45;;;;;;;7.90;1.55;;;;;;;12.93;61.04;101708.38;5034146;28;20033;-72
2023/04/25 09:11:12;;;;;;;9.60;1.70;;;;;;;13.50;60.67;101703.41;5034106;28;20029;-72
2023/04/25 09:13:38;;;;;;;5.75;1.48;;;;;;;14.30;56.88;101706.84;5033591;28;20042;-72
2023/04/25 09:16:03;;;;;;;5.22;1.45;;;;;;;14.27;51.10;101707.13;5033885;28;20371;-72
2023/04/25 09:18:33;;;;;;;7.75;1.35;;;;;;;14.51;50.62;101714.72;5033679;28;20379;-72
2023/04/25 09:21:10;;;;;;;5.07;1.10;;;;;;;14.50;51.27;101713.03;5033333;28;20391;-72
2023/04/25 09:23:45;;;;;;;7.88;1.50;;;;;;;15.28;47.52;101715.47;5032604;28;20022;-72
2023/04/25 09:26:15;;;;;;;6.20;1.50;;;;;;;15.46;47.13;101710.16;5033985;28;20026;-72
2023/04/25 09:28:42;;;;;;;7.10;1.35;;;;;;;15.96;47.90;101708.88;5034312;28;20036;-73
2023/04/25 09:31:10;;;;;;;7.55;1.40;;;;;;;16.38;48.80;101718.94;5033586;28;20108;-73
2023/04/25 09:33:35;;;;;;;8.98;1.40;;;;;;;16.80;47.61;101724.63;5033699;28;20054;-73
2023/04/25 09:36:07;;;;;;;5.80;1.33;;;;;;;15.48;47.50;101718.03;5034104;28;20038;-72
2023/04/25 09:38:41;;;;;;;9.25;1.70;;;;;;;13.91;53.04;101736.28;5033868;28;20021;-72
2023/04/25 09:41:07;;;;;;;11.75;1.70;;;;;;;12.29;58.70;101732.44;5032389;28;20551;-72
2023/04/25 09:43:33;;;;;;;4.68;1.40;;;;;;;13.70;58.90;101723.88;5033590;28;20035;-72
2023/04/25 09:46:00;;;;;;;6.57;1.25;;;;;;;15.24;53.00;101727.50;5033261;28;20069;-73
2023/04/25 09:48:27;;;;;;;8.95;1.70;;;;;;;14.33;50.06;101735.16;5034416;28;20033;-72
2023/04/25 09:51:09;;;;;;;6.63;1.55;;;;;;;13.26;53.85;101733.16;5033403;28;20068;-72
2023/04/25 09:53:36;;;;;;;8.20;1.58;;;;;;;12.60;55.85;101740.53;5033021;28;20025;-72
2023/04/25 09:56:07;;;;;;;8.27;1.40;;;;;;;12.51;56.41;101750.16;5033282;28;20036;-71
2023/04/25 09:58:34;;;;;;;8.07;1.52;;;;;;;11.96;59.76;101752.94;5033566;28;20429;-72
2023/04/25 10:01:10;;;;;;;9.35;1.65;;;;;;;10.72;67.37;101758.28;5033270;28;20482;-72
2023/04/25 10:03:39;;;;;;;7.22;1.40;;;;;;;10.16;75.81;101765.06;5032189;28;20120;-73
2023/04/25 10:06:08;;;;;;;6.63;1.42;;;;;;;9.35;81.79;101763.81;5032601;28;20459;-74
2023/04/25 10:08:36;;;;;;;12.65;1.50;;;;;;;9.11;87.88;101766.41;5032179;28;20033;-73
2023/04/25 10:11:04;;;;;;;6.80;1.90;;;;;;;10.73;83.32;101768.81;5032989;28;20495;-71
2023/04/25 10:13:31;;;;;;;7.75;1.52;;;;;;;12.75;64.81;101765.06;5031974;28;20034;-72
2023/04/25 10:16:03;;;;;;;5.53;1.65;;;;;;;13.06;60.54;101767.75;5033217;28;20029;-72
2023/04/25 10:18:30;;;;;;;9.15;1.60;;;;;;;12.08;62.00;101766.25;5033170;28;20369;-72
2023/04/25 10:21:03;;;;;;;7.50;1.60;;;;;;;13.24;60.26;101773.34;5032968;28;20040;-72
2023/04/25 10:23:31;;;;;;;8.90;1.73;;;;;;;13.95;57.72;101771.63;5032769;28;20218;-72
2023/04/25 10:25:57;;;;;;;7.43;1.55;;;;;;;14.73;51.84;101758.25;5032626;28;20057;-72
2023/04/25 10:28:22;;;;;;;8.60;1.58;;;;;;;14.31;50.89;101782.66;5032616;28;20124;-72
2023/04/25 10:31:02;;;;;;;8.07;1.05;;;;;;;14.32;49.44;101774.47;5032556;28;20079;-74
2023/04/25 10:33:38;;;;;;;4.80;1.27;;;;;;;14.51;48.91;101780.78;5032701;28;20065;-73
2023/04/25 10:36:21;;;;;;;7.53;1.48;;;;;;;15.07;47.98;101777.34;5031455;28;20099;-74
2023/04/25 10:38:50;;;;;;;5.40;1.30;;;;;;;16.15;47.76;101780.34;5033361;28;20029;-73
2023/04/25 10:41:18;;;;;;;7.25;1.42;;;;;;;16.43;42.53;101777.56;5031939;28;20083;-73
2023/04/25 10:43:45;;;;;;;8.55;1.65;;;;;;;16.23;42.35;101779.59;5032329;28;20064;-73
2023/04/25 10:46:29;;;;;;;4.80;1.20;;;;;;;16.14;42.27;101784.03;5032476;28;20041;-73
2023/04/25 10:48:56;;;;;;;8.07;2.30;;;;;;;16.39;44.03;101779.72;5032492;28;20041;-73
2023/04/25 10:51:22;;;;;;;9.43;1.40;;;;;;;16.52;42.53;101787.38;5033104;28;20040;-75
2023/04/25 10:54:07;;;;;;;5.95;1.45;;;;;;;16.96;44.51;101783.88;5031410;28;20026;-73
2023/04/25 10:56:35;;;;;;;10.77;1.73;;;;;;;17.50;43.65;101790.91;5032040;28;20080;-73
2023/04/25 10:59:15;;;;;;;5.68;1.85;;;;;;;16.95;44.71;101795.63;5032694;28;20121;-73
2023/04/25 11:01:41;;;;;;;5.85;1.42;;;;;;;16.90;41.62;101804.16;5032887;28;20034;-73
2023/04/25 11:04:20;;;;;;;11.52;1.52;;;;;;;16.17;45.94;101797.16;5032480;28;20426;-72
2023/04/25 11:06:51;;;;;;;5.80;1.50;;;;;;;15.15;45.69;101801.59;5033964;28;20382;-73
2023/04/25 11:09:17;;;;;;;9.10;1.65;;;;;;;14.23;45.80;101810.13;5037035;28;20030;-73
2023/04/25 11:11:42;;;;;;;8.13;1.63;;;;;;;14.56;45.15;101795.47;5036460;28;20043;-73
2023/04/25 11:14:08;;;;;;;7.38;1.58;;;;;;;15.22;45.66;101804.53;5035958;28;20438;-72
2023/04/25 11:16:33;;;;;;;7.43;1.55;;;;;;;15.80;45.87;101795.41;5034822;28;20037;-73
2023/04/25 11:18:59;;;;;;;7.88;1.73;;;;;;;16.02;45.37;101804.88;5035295;28;20033;-73